createdAt,value
2023-04-02T00:02:21.080Z,7.51
2023-04-02T00:05:30.342Z,7.58
2023-04-02T00:08:26.469Z,7.63
2023-04-02T00:10:55.138Z,7.63
2023-04-02T00:13:28.832Z,7.67
2023-04-02T00:15:58.293Z,7.63
2023-04-02T00:18:26.748Z,7.71
2023-04-02T00:21:03.450Z,7.60
2023-04-02T00:23:31.060Z,7.68
2023-04-02T00:25:57.964Z,7.67
2023-04-02T00:28:24.984Z,7.63
2023-04-02T00:30:56.201Z,7.71
2023-04-02T00:33:26.931Z,7.67
2023-04-02T00:35:55.370Z,7.71
2023-04-02T00:38:29.745Z,7.75
2023-04-02T00:41:00.633Z,7.89
2023-04-02T00:43:31.131Z,7.79
2023-04-02T00:46:01.360Z,7.87
2023-04-02T00:48:31.482Z,7.86
2023-04-02T00:51:08.252Z,7.91
2023-04-02T00:53:37.271Z,7.78
2023-04-02T00:56:14.607Z,7.83
2023-04-02T00:58:43.476Z,7.95
2023-04-02T01:01:27.592Z,7.97
2023-04-02T01:03:58.429Z,7.91
2023-04-02T01:06:31.214Z,7.93
2023-04-02T01:09:11.805Z,8.01
2023-04-02T01:11:42.113Z,7.82
2023-04-02T01:14:21.229Z,7.97
2023-04-02T01:17:15.632Z,7.92
2023-04-02T01:20:07.918Z,7.81
2023-04-02T01:22:57.978Z,7.82
2023-04-02T01:25:35.793Z,8.04
2023-04-02T01:28:21.241Z,7.92
2023-04-02T01:30:52.860Z,8.10
2023-04-02T01:33:25.094Z,8.05
2023-04-02T01:36:03.095Z,8.07
2023-04-02T01:38:38.265Z,8.12
2023-04-02T01:41:27.091Z,8.08
2023-04-02T01:44:08.263Z,8.00
2023-04-02T01:46:41.148Z,8.03
2023-04-02T01:49:18.725Z,8.12
2023-04-02T01:51:51.926Z,8.16
2023-04-02T01:54:22.024Z,8.14
2023-04-02T01:56:50.519Z,8.17
2023-04-02T01:59:22.544Z,8.14
2023-04-02T02:01:58.331Z,8.20
2023-04-02T02:04:25.896Z,8.30
2023-04-02T02:06:52.875Z,8.28
2023-04-02T02:09:27.344Z,8.24
2023-04-02T02:11:54.741Z,8.30
2023-04-02T02:14:24.949Z,8.36
2023-04-02T02:17:15.760Z,8.36
2023-04-02T02:19:53.425Z,8.31
2023-04-02T02:22:38.981Z,8.36
2023-04-02T02:25:14.213Z,8.30
2023-04-02T02:27:53.520Z,8.32
2023-04-02T02:30:35.051Z,8.40
2023-04-02T02:33:04.924Z,8.34
2023-04-02T02:35:57.956Z,8.25
2023-04-02T02:38:49.255Z,8.32
2023-04-02T02:41:41.504Z,8.24
2023-04-02T02:44:09.363Z,8.30
2023-04-02T02:46:41.862Z,8.34
2023-04-02T02:49:16.783Z,8.29
2023-04-02T02:51:50.872Z,8.19
2023-04-02T02:54:26.465Z,8.22
2023-04-02T02:56:59.371Z,8.31
2023-04-02T02:59:29.759Z,8.32
2023-04-02T03:01:57.246Z,8.22
2023-04-02T03:04:25.239Z,8.29
2023-04-02T03:06:57.902Z,8.22
2023-04-02T03:09:42.113Z,8.28
2023-04-02T03:12:26.264Z,8.30
2023-04-02T03:15:13.793Z,8.37
2023-04-02T03:17:59.305Z,8.27
2023-04-02T03:20:38.656Z,8.36
2023-04-02T03:23:08.857Z,8.33
2023-04-02T03:25:52.748Z,8.39
2023-04-02T03:28:27.104Z,8.32
2023-04-02T03:31:09.021Z,8.25
2023-04-02T03:33:40.938Z,8.37
2023-04-02T03:36:32.200Z,8.32
2023-04-02T03:39:44.339Z,8.36
2023-04-02T03:42:17.308Z,8.37
2023-04-02T03:44:54.980Z,8.38
2023-04-02T03:47:31.099Z,8.34
2023-04-02T03:50:08.877Z,8.46
2023-04-02T03:52:38.381Z,8.53
2023-04-02T03:55:20.237Z,8.31
2023-04-02T03:58:09.011Z,8.55
2023-04-02T04:00:57.849Z,8.60
2023-04-02T04:03:28.928Z,8.41
2023-04-02T04:06:06.699Z,8.51
2023-04-02T04:09:06.338Z,8.40
2023-04-02T04:11:38.635Z,8.38
2023-04-02T04:14:31.466Z,8.27
2023-04-02T04:17:06.082Z,8.29
2023-04-02T04:19:48.459Z,8.44
2023-04-02T04:22:30.460Z,8.45
2023-04-02T04:25:21.186Z,8.39
2023-04-02T04:27:56.201Z,8.44
2023-04-02T04:30:42.511Z,8.55
2023-04-02T04:33:23.331Z,8.47
2023-04-02T04:36:00.859Z,8.43
2023-04-02T04:38:41.308Z,8.39
2023-04-02T04:41:24.511Z,8.55
2023-04-02T04:44:06.015Z,8.46
2023-04-02T04:46:45.787Z,8.59
2023-04-02T04:49:39.788Z,8.54
2023-04-02T04:52:35.848Z,8.75
2023-04-02T04:55:30.992Z,8.69
2023-04-02T04:58:24.044Z,8.81
2023-04-02T05:01:10.608Z,8.66
2023-04-02T05:03:52.235Z,8.73
2023-04-02T05:06:25.947Z,8.63
2023-04-02T05:08:57.496Z,8.78
2023-04-02T05:11:38.461Z,8.66
2023-04-02T05:14:52.143Z,8.57
2023-04-02T05:17:46.568Z,8.66
2023-04-02T05:20:28.622Z,8.44
2023-04-02T05:23:20.132Z,8.60
2023-04-02T05:26:19.183Z,8.47
2023-04-02T05:29:10.798Z,8.64
2023-04-02T05:31:49.860Z,8.67
2023-04-02T05:34:25.893Z,8.48
2023-04-02T05:36:54.290Z,8.47
2023-04-02T05:39:26.561Z,8.64
2023-04-02T05:42:06.825Z,8.57
2023-04-02T05:45:33.884Z,8.60
2023-04-02T05:48:13.352Z,8.64
2023-04-02T05:50:47.904Z,8.42
2023-04-02T05:53:37.426Z,8.50
2023-04-02T05:56:37.787Z,8.65
2023-04-02T05:59:28.208Z,8.62
2023-04-02T06:02:17.509Z,8.92
2023-04-02T06:05:04.697Z,8.92
2023-04-02T06:07:58.300Z,8.94
2023-04-02T06:10:31.552Z,9.10
2023-04-02T06:13:05.366Z,9.13
2023-04-02T06:15:38.488Z,9.15
2023-04-02T06:18:26.631Z,9.12
2023-04-02T06:20:55.189Z,9.26
2023-04-02T06:23:35.018Z,9.38
2023-04-02T06:26:14.199Z,9.33
2023-04-02T06:28:47.170Z,9.22
2023-04-02T06:31:32.445Z,9.20
2023-04-02T06:33:59.561Z,9.28
2023-04-02T06:36:31.219Z,9.23
2023-04-02T06:39:11.464Z,9.49
2023-04-02T06:41:38.829Z,9.40
2023-04-02T06:44:28.328Z,9.52
2023-04-02T06:47:30.061Z,9.51
2023-04-02T06:50:24.154Z,9.71
2023-04-02T06:52:55.317Z,9.73
2023-04-02T06:55:36.802Z,9.76
2023-04-02T06:58:04.082Z,9.85
2023-04-02T07:00:38.625Z,9.90
2023-04-02T07:03:21.952Z,9.78
2023-04-02T07:05:51.766Z,9.82
2023-04-02T07:08:18.941Z,9.68
2023-04-02T07:10:46.787Z,9.59
2023-04-02T07:13:19.958Z,9.54
2023-04-02T07:15:52.684Z,9.31
2023-04-02T07:18:25.791Z,9.22
2023-04-02T07:20:53.537Z,9.35
2023-04-02T07:23:23.637Z,9.39
2023-04-02T07:25:53.007Z,9.41
2023-04-02T07:28:21.990Z,9.35
2023-04-02T07:30:52.702Z,9.40
2023-04-02T07:33:23.902Z,9.31
2023-04-02T07:35:52.343Z,9.47
2023-04-02T07:38:19.553Z,9.39
2023-04-02T07:40:47.253Z,9.20
2023-04-02T07:43:14.288Z,9.27
2023-04-02T07:45:41.855Z,9.57
2023-04-02T07:48:14.026Z,9.69
2023-04-02T07:50:44.056Z,9.80
2023-04-02T07:53:33.193Z,10.01
2023-04-02T07:56:02.072Z,9.96
2023-04-02T07:58:30.352Z,9.82
2023-04-02T08:00:59.482Z,10.00
2023-04-02T08:03:27.086Z,10.02
2023-04-02T08:06:01.487Z,10.02
2023-04-02T08:08:31.721Z,10.07
2023-04-02T08:11:01.524Z,10.03
2023-04-02T08:13:28.938Z,10.03
2023-04-02T08:15:59.278Z,10.03
2023-04-02T08:18:27.164Z,10.14
2023-04-02T08:20:54.240Z,10.25
2023-04-02T08:23:21.869Z,10.18
2023-04-02T08:25:49.223Z,10.05
2023-04-02T08:28:16.766Z,10.10
2023-04-02T08:30:44.489Z,10.14
2023-04-02T08:33:11.752Z,9.99
2023-04-02T08:35:41.164Z,9.88
2023-04-02T08:38:09.057Z,9.94
2023-04-02T08:40:39.239Z,10.13
2023-04-02T08:43:19.021Z,9.91
2023-04-02T08:46:02.062Z,9.89
2023-04-02T08:48:32.854Z,10.05
2023-04-02T08:51:00.514Z,9.90
2023-04-02T08:53:40.546Z,9.88
2023-04-02T08:56:27.334Z,9.94
2023-04-02T08:59:02.111Z,9.85
2023-04-02T09:02:04.803Z,9.76
2023-04-02T09:04:33.481Z,9.74
2023-04-02T09:07:01.125Z,9.98
2023-04-02T09:09:28.298Z,9.87
2023-04-02T09:12:04.226Z,10.06
2023-04-02T09:14:43.851Z,9.97
2023-04-02T09:17:18.965Z,10.05
2023-04-02T09:19:56.317Z,10.12
2023-04-02T09:22:32.381Z,10.03
2023-04-02T09:25:02.329Z,10.12
2023-04-02T09:27:32.798Z,10.12
2023-04-02T09:30:18.520Z,9.98
2023-04-02T09:32:48.578Z,9.94
2023-04-02T09:35:26.841Z,10.06
2023-04-02T09:38:16.350Z,10.03
2023-04-02T09:40:51.387Z,10.10
2023-04-02T09:43:25.743Z,9.95
2023-04-02T09:46:17.919Z,10.16
2023-04-02T09:48:53.593Z,10.45
2023-04-02T09:51:27.235Z,10.19
2023-04-02T09:54:03.997Z,10.27
2023-04-02T09:56:33.883Z,10.62
2023-04-02T09:59:18.470Z,10.49
2023-04-02T10:01:57.089Z,10.38
2023-04-02T10:04:49.691Z,10.62
2023-04-02T10:07:29.759Z,10.60
2023-04-02T10:10:18.921Z,10.19
2023-04-02T10:12:57.160Z,10.37
2023-04-02T10:15:49.117Z,10.73
2023-04-02T10:18:40.616Z,10.70
2023-04-02T10:21:12.021Z,10.70
2023-04-02T10:23:39.235Z,10.95
2023-04-02T10:26:44.997Z,11.12
2023-04-02T10:29:25.454Z,11.03
2023-04-02T10:32:15.275Z,10.98
2023-04-02T10:34:58.885Z,11.27
2023-04-02T10:37:49.029Z,11.45
2023-04-02T10:40:22.232Z,11.53
2023-04-02T10:42:54.830Z,11.67
2023-04-02T10:45:54.559Z,12.04
2023-04-02T10:48:27.707Z,12.34
2023-04-02T10:51:06.909Z,12.47
2023-04-02T10:53:49.896Z,12.47
2023-04-02T10:56:22.921Z,12.86
2023-04-02T10:58:58.710Z,13.37
2023-04-02T11:01:29.827Z,13.34
2023-04-02T11:04:05.842Z,13.54
2023-04-02T11:06:44.098Z,14.21
2023-04-02T11:09:19.933Z,15.37
2023-04-02T11:11:51.457Z,15.29
2023-04-02T11:14:26.974Z,16.39
2023-04-02T11:16:58.960Z,16.07
2023-04-02T11:19:40.741Z,15.31
2023-04-02T11:22:18.421Z,14.40
2023-04-02T11:24:46.346Z,13.56
2023-04-02T11:27:16.521Z,13.69
2023-04-02T11:29:50.676Z,13.58
2023-04-02T11:32:22.044Z,13.31
2023-04-02T11:34:56.440Z,13.18
2023-04-02T11:37:46.294Z,13.02
2023-04-02T11:40:16.215Z,12.89
2023-04-02T11:42:56.200Z,12.70
2023-04-02T11:45:23.440Z,12.66
2023-04-02T11:48:00.045Z,12.40
2023-04-02T11:50:48.523Z,12.66
2023-04-02T11:53:26.284Z,12.79
2023-04-02T11:56:31.403Z,12.68
2023-04-02T11:59:04.537Z,12.58
2023-04-02T12:01:53.223Z,12.71
2023-04-02T12:05:04.531Z,12.83
2023-04-02T12:08:08.835Z,12.74
2023-04-02T12:11:15.818Z,13.10
2023-04-02T12:13:43.092Z,13.05
2023-04-02T12:16:13.418Z,13.03
2023-04-02T12:18:56.717Z,12.92
2023-04-02T12:21:28.408Z,13.14
2023-04-02T12:23:58.836Z,13.56
2023-04-02T12:26:38.447Z,13.60
2023-04-02T12:29:35.688Z,13.45
2023-04-02T12:32:19.743Z,13.07
2023-04-02T12:34:46.906Z,13.15
2023-04-02T12:37:22.024Z,12.99
2023-04-02T12:40:16.343Z,12.95
2023-04-02T12:42:46.304Z,12.73
2023-04-02T12:45:34.172Z,12.66
2023-04-02T12:48:05.624Z,12.66
2023-04-02T12:50:34.334Z,12.58
2023-04-02T12:53:01.820Z,12.45
2023-04-02T12:55:28.976Z,12.29
2023-04-02T12:58:00.217Z,12.38
2023-04-02T13:00:29.936Z,12.18
2023-04-02T13:03:03.653Z,11.97
2023-04-02T13:05:43.748Z,12.08
2023-04-02T13:08:18.186Z,12.03
2023-04-02T13:10:45.872Z,12.03
2023-04-02T13:13:21.755Z,11.78
2023-04-02T13:16:06.096Z,11.72
2023-04-02T13:18:36.912Z,11.74
2023-04-02T13:21:24.888Z,11.74
2023-04-02T13:23:53.177Z,11.75
2023-04-02T13:26:24.284Z,11.72
2023-04-02T13:29:19.821Z,11.87
2023-04-02T13:31:47.482Z,11.94
2023-04-02T13:34:14.996Z,11.97
2023-04-02T13:36:44.418Z,11.93
2023-04-02T13:39:11.510Z,11.92
2023-04-02T13:41:46.756Z,11.91
2023-04-02T13:44:27.555Z,11.98
2023-04-02T13:46:56.501Z,11.85
2023-04-02T13:49:24.925Z,12.09
2023-04-02T13:51:54.926Z,12.09
2023-04-02T13:54:28.151Z,12.04
2023-04-02T13:57:01.733Z,11.98
2023-04-02T13:59:35.227Z,12.05
2023-04-02T14:02:10.630Z,12.00
2023-04-02T14:04:47.050Z,11.84
2023-04-02T14:07:22.049Z,11.88
2023-04-02T14:10:05.894Z,11.82
2023-04-02T14:12:58.462Z,11.82
2023-04-02T14:15:57.833Z,11.44
2023-04-02T14:19:02.936Z,11.83
2023-04-02T14:21:44.405Z,11.88
2023-04-02T14:24:11.508Z,11.87
2023-04-02T14:26:57.870Z,11.93
2023-04-02T14:29:30.680Z,11.94
2023-04-02T14:32:18.042Z,11.93
2023-04-02T14:35:18.282Z,11.93
2023-04-02T14:38:28.597Z,11.88
2023-04-02T14:41:11.784Z,11.99
2023-04-02T14:43:58.923Z,12.02
2023-04-02T14:46:27.400Z,11.88
2023-04-02T14:49:02.084Z,11.96
2023-04-02T14:51:41.745Z,12.00
2023-04-02T14:54:33.740Z,11.90
2023-04-02T14:57:17.003Z,11.92
2023-04-02T14:59:56.041Z,11.90
2023-04-02T15:02:41.737Z,11.92
2023-04-02T15:05:36.138Z,11.97
2023-04-02T15:08:22.441Z,11.94
2023-04-02T15:10:53.140Z,11.83
2023-04-02T15:13:25.716Z,11.82
2023-04-02T15:16:19.978Z,11.79
2023-04-02T15:18:52.373Z,11.71
2023-04-02T15:21:19.449Z,11.73
2023-04-02T15:24:16.698Z,11.75
2023-04-02T15:26:49.736Z,11.72
2023-04-02T15:29:35.856Z,11.63
2023-04-02T15:32:21.591Z,11.59
2023-04-02T15:35:15.488Z,11.48
2023-04-02T15:38:13.385Z,11.50
2023-04-02T15:40:43.483Z,11.52
2023-04-02T15:43:24.535Z,11.57
2023-04-02T15:46:16.586Z,11.50
2023-04-02T15:49:21.151Z,11.58
2023-04-02T15:51:57.212Z,11.56
2023-04-02T15:54:33.396Z,11.47
2023-04-02T15:57:30.225Z,11.53
2023-04-02T16:00:23.948Z,11.51
2023-04-02T16:03:09.626Z,11.48
2023-04-02T16:05:39.966Z,11.45
2023-04-02T16:08:48.098Z,11.49
2023-04-02T16:11:15.999Z,11.38
2023-04-02T16:13:43.907Z,11.37
2023-04-02T16:16:22.112Z,11.37
2023-04-02T16:19:24.144Z,11.30
2023-04-02T16:22:01.741Z,11.26
2023-04-02T16:24:29.282Z,11.28
2023-04-02T16:27:11.823Z,11.28
2023-04-02T16:30:01.162Z,11.22
2023-04-02T16:32:57.134Z,11.25
2023-04-02T16:35:42.407Z,11.26
2023-04-02T16:38:38.534Z,11.16
2023-04-02T16:41:27.690Z,11.12
2023-04-02T16:44:07.205Z,11.06
2023-04-02T16:47:06.806Z,11.08
2023-04-02T16:50:12.396Z,11.00
2023-04-02T16:53:11.814Z,10.93
2023-04-02T16:55:49.422Z,10.93
2023-04-02T16:58:27.860Z,10.95
2023-04-02T17:01:01.070Z,10.94
2023-04-02T17:03:37.243Z,11.00
2023-04-02T17:06:13.491Z,11.01
2023-04-02T17:08:52.106Z,11.00
2023-04-02T17:11:22.033Z,11.02
2023-04-02T17:14:06.238Z,10.97
2023-04-02T17:16:50.729Z,10.91
2023-04-02T17:19:19.470Z,10.99
2023-04-02T17:21:52.623Z,11.00
2023-04-02T17:24:19.656Z,11.02
2023-04-02T17:26:50.352Z,11.00
2023-04-02T17:29:35.346Z,10.95
2023-04-02T17:32:05.370Z,10.99
2023-04-02T17:34:32.432Z,10.99
2023-04-02T17:37:11.790Z,11.00
2023-04-02T17:39:39.745Z,11.01
2023-04-02T17:42:36.710Z,11.01
2023-04-02T17:45:03.593Z,11.01
2023-04-02T17:47:34.026Z,11.00
2023-04-02T17:50:26.184Z,11.01
2023-04-02T17:52:56.759Z,11.02
2023-04-02T17:55:34.502Z,11.01
2023-04-02T17:58:11.401Z,11.00
2023-04-02T18:01:13.505Z,10.99
2023-04-02T18:03:49.531Z,11.00
2023-04-02T18:06:41.029Z,11.02
2023-04-02T18:09:19.287Z,10.95
2023-04-02T18:11:54.920Z,10.93
2023-04-02T18:14:37.890Z,10.97
2023-04-02T18:17:36.941Z,10.94
2023-04-02T18:20:31.349Z,10.98
2023-04-02T18:23:22.338Z,11.04
2023-04-02T18:26:08.335Z,11.02
2023-04-02T18:28:52.974Z,10.91
2023-04-02T18:31:43.481Z,10.95
2023-04-02T18:34:19.844Z,10.92
2023-04-02T18:36:52.913Z,10.93
2023-04-02T18:39:26.993Z,10.86
2023-04-02T18:42:05.696Z,10.95
2023-04-02T18:44:49.420Z,10.91
2023-04-02T18:47:36.823Z,10.92
2023-04-02T18:50:16.538Z,10.85
2023-04-02T18:52:43.523Z,10.89
2023-04-02T18:55:18.355Z,10.79
2023-04-02T18:57:48.872Z,10.87
2023-04-02T19:00:28.375Z,10.85
2023-04-02T19:03:02.095Z,10.89
2023-04-02T19:05:35.664Z,10.88
2023-04-02T19:08:11.242Z,10.83
2023-04-02T19:10:41.951Z,10.81
2023-04-02T19:13:22.910Z,10.76
2023-04-02T19:16:19.020Z,10.68
2023-04-02T19:19:03.221Z,10.60
2023-04-02T19:21:39.431Z,10.72
2023-04-02T19:24:15.606Z,10.77
2023-04-02T19:27:20.978Z,10.73
2023-04-02T19:29:57.278Z,10.67
2023-04-02T19:32:39.217Z,10.65
2023-04-02T19:35:18.292Z,10.70
2023-04-02T19:38:05.477Z,10.74
2023-04-02T19:40:53.717Z,10.63
2023-04-02T19:43:20.990Z,10.54
2023-04-02T19:45:49.223Z,10.57
2023-04-02T19:48:20.245Z,10.54
2023-04-02T19:50:49.200Z,10.54
2023-04-02T19:53:17.059Z,10.54
2023-04-02T19:55:45.601Z,10.59
2023-04-02T19:58:39.231Z,10.61
2023-04-02T20:01:06.694Z,10.55
2023-04-02T20:03:33.809Z,10.57
2023-04-02T20:06:01.178Z,10.53
2023-04-02T20:08:28.244Z,10.58
2023-04-02T20:10:56.180Z,10.52
2023-04-02T20:13:23.052Z,10.50
2023-04-02T20:15:51.602Z,10.38
2023-04-02T20:18:36.690Z,10.43
2023-04-02T20:21:13.658Z,10.53
2023-04-02T20:23:41.151Z,10.54
2023-04-02T20:26:08.764Z,10.53
2023-04-02T20:28:36.237Z,10.53
2023-04-02T20:31:09.339Z,10.34
2023-04-02T20:33:36.880Z,10.43
2023-04-02T20:36:07.223Z,10.38
2023-04-02T20:38:35.875Z,10.37
2023-04-02T20:41:15.404Z,10.35
2023-04-02T20:43:46.032Z,10.39
2023-04-02T20:46:14.459Z,10.38
2023-04-02T20:48:46.175Z,10.27
2023-04-02T20:51:15.353Z,10.30
2023-04-02T20:53:46.219Z,10.36
2023-04-02T20:56:15.833Z,10.34
2023-04-02T20:58:44.505Z,10.36
2023-04-02T21:01:21.308Z,10.30
2023-04-02T21:03:50.436Z,10.32
2023-04-02T21:06:21.362Z,10.19
2023-04-02T21:59:47.252Z,9.72
2023-04-02T22:02:14.795Z,9.74
2023-04-02T22:04:42.049Z,9.78
2023-04-02T22:07:09.111Z,9.81
2023-04-02T22:09:36.129Z,9.82
2023-04-02T22:12:03.208Z,9.80
2023-04-02T22:14:31.406Z,9.76
2023-04-02T22:17:23.600Z,9.71
2023-04-02T22:19:50.801Z,9.70
2023-04-02T22:22:17.652Z,9.72
2023-04-02T22:24:44.528Z,9.73
2023-04-02T22:27:12.930Z,9.76
2023-04-02T22:29:39.854Z,9.75
2023-04-02T22:32:06.758Z,9.75
2023-04-02T22:34:33.865Z,9.76
2023-04-02T22:37:00.999Z,9.75
2023-04-02T22:39:27.935Z,9.75
2023-04-02T22:41:55.024Z,9.73
2023-04-02T22:44:21.991Z,9.69
2023-04-02T22:46:48.887Z,9.67
2023-04-02T22:49:19.346Z,9.68
2023-04-02T22:51:46.994Z,9.69
2023-04-02T22:54:13.911Z,9.67
2023-04-02T22:56:41.354Z,9.66
2023-04-02T22:59:08.282Z,9.69
2023-04-02T23:01:36.185Z,9.69
2023-04-02T23:04:05.177Z,9.66
2023-04-02T23:06:32.310Z,9.63
2023-04-02T23:08:59.205Z,9.66
2023-04-02T23:11:27.849Z,9.67
2023-04-02T23:13:57.362Z,9.67
2023-04-02T23:16:27.306Z,9.65
2023-04-02T23:18:55.580Z,9.65
2023-04-02T23:21:23.516Z,9.63
2023-04-02T23:23:51.244Z,9.63
2023-04-02T23:26:29.681Z,9.65
2023-04-02T23:28:58.528Z,9.64
2023-04-02T23:31:26.503Z,9.65
2023-04-02T23:33:53.421Z,9.51
2023-04-02T23:36:29.256Z,9.63
2023-04-02T23:39:01.745Z,9.64
2023-04-02T23:41:30.531Z,9.61
2023-04-02T23:43:58.557Z,9.62
2023-04-02T23:46:26.007Z,9.62
2023-04-02T23:48:53.979Z,9.62
2023-04-02T23:51:21.297Z,9.60
2023-04-02T23:53:50.233Z,9.57
2023-04-02T23:56:18.001Z,9.56
2023-04-02T23:58:45.360Z,9.54
